sensor_id;sensor_type;location;lat;lon;timestamp;P1;durP1;ratioP1;P2;durP2;ratioP2
51495;SDS011;37572;52.094;4.870;2023-07-30T00:01:02;11.30;;;3.10;;
51495;SDS011;37572;52.094;4.870;2023-07-30T00:03:27;10.93;;;3.63;;
51495;SDS011;37572;52.094;4.870;2023-07-30T00:05:53;7.33;;;1.93;;
51495;SDS011;37572;52.094;4.870;2023-07-30T00:08:19;11.68;;;2.67;;
51495;SDS011;37572;52.094;4.870;2023-07-30T00:10:45;10.48;;;2.55;;
51495;SDS011;37572;52.094;4.870;2023-07-30T00:13:11;12.02;;;3.22;;
51495;SDS011;37572;52.094;4.870;2023-07-30T00:15:36;10.90;;;2.58;;
51495;SDS011;37572;52.094;4.870;2023-07-30T00:18:01;11.27;;;3.07;;
51495;SDS011;37572;52.094;4.870;2023-07-30T00:20:27;7.32;;;2.63;;
51495;SDS011;37572;52.094;4.870;2023-07-30T00:22:52;10.27;;;2.33;;
51495;SDS011;37572;52.094;4.870;2023-07-30T00:25:17;7.30;;;2.07;;
51495;SDS011;37572;52.094;4.870;2023-07-30T00:27:42;11.10;;;2.50;;
51495;SDS011;37572;52.094;4.870;2023-07-30T00:30:08;7.93;;;2.47;;
51495;SDS011;37572;52.094;4.870;2023-07-30T00:32:33;7.07;;;2.50;;
51495;SDS011;37572;52.094;4.870;2023-07-30T00:34:59;9.57;;;2.63;;
51495;SDS011;37572;52.094;4.870;2023-07-30T00:37:24;14.70;;;3.78;;
51495;SDS011;37572;52.094;4.870;2023-07-30T00:39:49;13.13;;;2.70;;
51495;SDS011;37572;52.094;4.870;2023-07-30T00:42:15;11.07;;;2.03;;
51495;SDS011;37572;52.094;4.870;2023-07-30T00:44:40;8.85;;;3.13;;
51495;SDS011;37572;52.094;4.870;2023-07-30T00:47:05;8.90;;;2.58;;
51495;SDS011;37572;52.094;4.870;2023-07-30T00:49:31;10.73;;;2.80;;
51495;SDS011;37572;52.094;4.870;2023-07-30T00:51:56;13.50;;;2.58;;
51495;SDS011;37572;52.094;4.870;2023-07-30T00:54:22;10.65;;;3.17;;
51495;SDS011;37572;52.094;4.870;2023-07-30T00:56:50;6.50;;;2.45;;
51495;SDS011;37572;52.094;4.870;2023-07-30T00:59:17;7.45;;;2.22;;
51495;SDS011;37572;52.094;4.870;2023-07-30T01:01:43;9.90;;;2.83;;
51495;SDS011;37572;52.094;4.870;2023-07-30T01:04:11;11.00;;;3.03;;
51495;SDS011;37572;52.094;4.870;2023-07-30T01:06:36;10.10;;;3.05;;
51495;SDS011;37572;52.094;4.870;2023-07-30T01:09:02;12.27;;;3.00;;
51495;SDS011;37572;52.094;4.870;2023-07-30T01:11:27;11.02;;;2.95;;
51495;SDS011;37572;52.094;4.870;2023-07-30T01:13:54;10.07;;;2.88;;
51495;SDS011;37572;52.094;4.870;2023-07-30T01:16:20;11.82;;;2.92;;
51495;SDS011;37572;52.094;4.870;2023-07-30T01:18:46;8.07;;;2.83;;
51495;SDS011;37572;52.094;4.870;2023-07-30T01:21:11;12.60;;;3.22;;
51495;SDS011;37572;52.094;4.870;2023-07-30T01:23:37;10.27;;;2.50;;
51495;SDS011;37572;52.094;4.870;2023-07-30T01:26:09;12.63;;;3.60;;
51495;SDS011;37572;52.094;4.870;2023-07-30T01:28:39;11.05;;;2.92;;
51495;SDS011;37572;52.094;4.870;2023-07-30T01:31:12;11.40;;;2.83;;
51495;SDS011;37572;52.094;4.870;2023-07-30T01:33:40;13.00;;;3.22;;
51495;SDS011;37572;52.094;4.870;2023-07-30T01:36:06;15.75;;;2.97;;
51495;SDS011;37572;52.094;4.870;2023-07-30T01:38:34;10.98;;;3.58;;
51495;SDS011;37572;52.094;4.870;2023-07-30T01:41:00;11.10;;;2.85;;
51495;SDS011;37572;52.094;4.870;2023-07-30T01:43:26;10.40;;;3.25;;
51495;SDS011;37572;52.094;4.870;2023-07-30T01:45:51;12.85;;;3.35;;
51495;SDS011;37572;52.094;4.870;2023-07-30T01:48:16;11.30;;;2.73;;
51495;SDS011;37572;52.094;4.870;2023-07-30T01:50:42;15.93;;;3.80;;
51495;SDS011;37572;52.094;4.870;2023-07-30T01:53:08;10.52;;;3.78;;
51495;SDS011;37572;52.094;4.870;2023-07-30T01:55:33;12.38;;;3.03;;
51495;SDS011;37572;52.094;4.870;2023-07-30T01:57:58;9.88;;;3.08;;
51495;SDS011;37572;52.094;4.870;2023-07-30T02:00:24;10.83;;;2.90;;
51495;SDS011;37572;52.094;4.870;2023-07-30T02:02:49;11.40;;;3.33;;
51495;SDS011;37572;52.094;4.870;2023-07-30T02:05:14;12.47;;;2.87;;
51495;SDS011;37572;52.094;4.870;2023-07-30T02:07:40;14.20;;;3.20;;
51495;SDS011;37572;52.094;4.870;2023-07-30T02:10:05;13.10;;;3.43;;
51495;SDS011;37572;52.094;4.870;2023-07-30T02:12:31;14.73;;;3.35;;
51495;SDS011;37572;52.094;4.870;2023-07-30T02:14:56;15.20;;;3.70;;
51495;SDS011;37572;52.094;4.870;2023-07-30T02:17:21;11.03;;;3.43;;
51495;SDS011;37572;52.094;4.870;2023-07-30T02:19:46;11.43;;;3.57;;
51495;SDS011;37572;52.094;4.870;2023-07-30T02:22:12;10.03;;;3.23;;
51495;SDS011;37572;52.094;4.870;2023-07-30T02:24:37;13.23;;;3.15;;
51495;SDS011;37572;52.094;4.870;2023-07-30T02:27:02;11.70;;;2.87;;
51495;SDS011;37572;52.094;4.870;2023-07-30T02:29:28;17.52;;;3.30;;
51495;SDS011;37572;52.094;4.870;2023-07-30T02:31:53;13.25;;;4.07;;
51495;SDS011;37572;52.094;4.870;2023-07-30T02:34:19;13.50;;;4.07;;
51495;SDS011;37572;52.094;4.870;2023-07-30T02:36:44;12.57;;;2.80;;
51495;SDS011;37572;52.094;4.870;2023-07-30T02:39:09;12.47;;;4.03;;
51495;SDS011;37572;52.094;4.870;2023-07-30T02:41:34;15.63;;;3.77;;
51495;SDS011;37572;52.094;4.870;2023-07-30T02:44:00;14.97;;;3.93;;
51495;SDS011;37572;52.094;4.870;2023-07-30T02:46:25;12.52;;;3.90;;
51495;SDS011;37572;52.094;4.870;2023-07-30T02:48:50;12.33;;;3.53;;
51495;SDS011;37572;52.094;4.870;2023-07-30T02:51:16;17.07;;;3.73;;
51495;SDS011;37572;52.094;4.870;2023-07-30T02:53:42;16.70;;;4.53;;
51495;SDS011;37572;52.094;4.870;2023-07-30T02:56:08;17.23;;;4.40;;
51495;SDS011;37572;52.094;4.870;2023-07-30T02:58:34;13.93;;;3.70;;
51495;SDS011;37572;52.094;4.870;2023-07-30T03:01:04;15.23;;;4.60;;
51495;SDS011;37572;52.094;4.870;2023-07-30T03:03:31;14.18;;;3.47;;
51495;SDS011;37572;52.094;4.870;2023-07-30T03:05:57;19.58;;;4.43;;
51495;SDS011;37572;52.094;4.870;2023-07-30T03:08:22;13.70;;;4.20;;
51495;SDS011;37572;52.094;4.870;2023-07-30T03:10:48;18.23;;;4.13;;
51495;SDS011;37572;52.094;4.870;2023-07-30T03:13:13;13.47;;;4.23;;
51495;SDS011;37572;52.094;4.870;2023-07-30T03:15:38;16.77;;;4.93;;
51495;SDS011;37572;52.094;4.870;2023-07-30T03:18:03;16.77;;;4.47;;
51495;SDS011;37572;52.094;4.870;2023-07-30T03:20:29;21.60;;;4.67;;
51495;SDS011;37572;52.094;4.870;2023-07-30T03:22:54;21.30;;;4.53;;
51495;SDS011;37572;52.094;4.870;2023-07-30T03:25:19;20.33;;;4.37;;
51495;SDS011;37572;52.094;4.870;2023-07-30T03:27:45;18.30;;;4.57;;
51495;SDS011;37572;52.094;4.870;2023-07-30T03:30:10;16.43;;;5.13;;
51495;SDS011;37572;52.094;4.870;2023-07-30T03:32:36;13.60;;;4.07;;
51495;SDS011;37572;52.094;4.870;2023-07-30T03:35:01;15.90;;;4.63;;
51495;SDS011;37572;52.094;4.870;2023-07-30T03:37:26;21.10;;;5.93;;
51495;SDS011;37572;52.094;4.870;2023-07-30T03:39:52;24.23;;;5.80;;
51495;SDS011;37572;52.094;4.870;2023-07-30T03:42:17;18.42;;;5.20;;
51495;SDS011;37572;52.094;4.870;2023-07-30T03:44:42;19.85;;;5.10;;
51495;SDS011;37572;52.094;4.870;2023-07-30T03:47:08;17.77;;;5.07;;
51495;SDS011;37572;52.094;4.870;2023-07-30T03:49:33;21.23;;;5.03;;
51495;SDS011;37572;52.094;4.870;2023-07-30T03:51:59;21.70;;;5.50;;
51495;SDS011;37572;52.094;4.870;2023-07-30T03:54:24;21.88;;;5.32;;
51495;SDS011;37572;52.094;4.870;2023-07-30T03:56:50;27.20;;;6.27;;
51495;SDS011;37572;52.094;4.870;2023-07-30T03:59:15;21.55;;;4.60;;
51495;SDS011;37572;52.094;4.870;2023-07-30T04:01:40;20.87;;;4.77;;
51495;SDS011;37572;52.094;4.870;2023-07-30T04:04:06;20.20;;;5.13;;
51495;SDS011;37572;52.094;4.870;2023-07-30T04:06:31;20.30;;;4.70;;
51495;SDS011;37572;52.094;4.870;2023-07-30T04:08:56;21.80;;;5.30;;
51495;SDS011;37572;52.094;4.870;2023-07-30T04:11:22;20.17;;;4.70;;
51495;SDS011;37572;52.094;4.870;2023-07-30T04:13:47;23.33;;;5.97;;
51495;SDS011;37572;52.094;4.870;2023-07-30T04:16:12;23.07;;;5.53;;
51495;SDS011;37572;52.094;4.870;2023-07-30T04:18:38;27.42;;;6.10;;
51495;SDS011;37572;52.094;4.870;2023-07-30T04:21:03;24.65;;;5.53;;
51495;SDS011;37572;52.094;4.870;2023-07-30T04:23:28;21.90;;;5.67;;
51495;SDS011;37572;52.094;4.870;2023-07-30T04:25:54;23.47;;;6.80;;
51495;SDS011;37572;52.094;4.870;2023-07-30T04:28:19;20.37;;;5.23;;
51495;SDS011;37572;52.094;4.870;2023-07-30T04:30:44;22.03;;;5.87;;
51495;SDS011;37572;52.094;4.870;2023-07-30T04:33:11;22.33;;;5.90;;
51495;SDS011;37572;52.094;4.870;2023-07-30T04:35:38;22.92;;;5.80;;
51495;SDS011;37572;52.094;4.870;2023-07-30T04:38:04;19.67;;;5.15;;
51495;SDS011;37572;52.094;4.870;2023-07-30T04:40:29;17.97;;;4.50;;
51495;SDS011;37572;52.094;4.870;2023-07-30T04:42:55;24.83;;;5.97;;
51495;SDS011;37572;52.094;4.870;2023-07-30T04:45:20;20.93;;;5.73;;
51495;SDS011;37572;52.094;4.870;2023-07-30T04:47:45;24.63;;;6.50;;
51495;SDS011;37572;52.094;4.870;2023-07-30T04:50:11;26.13;;;6.27;;
51495;SDS011;37572;52.094;4.870;2023-07-30T04:52:37;23.02;;;6.05;;
51495;SDS011;37572;52.094;4.870;2023-07-30T04:55:02;26.02;;;6.13;;
51495;SDS011;37572;52.094;4.870;2023-07-30T04:57:28;19.60;;;5.13;;
51495;SDS011;37572;52.094;4.870;2023-07-30T04:59:53;20.08;;;5.25;;
51495;SDS011;37572;52.094;4.870;2023-07-30T05:02:18;22.47;;;5.47;;
51495;SDS011;37572;52.094;4.870;2023-07-30T05:04:44;21.65;;;5.75;;
51495;SDS011;37572;52.094;4.870;2023-07-30T05:07:09;26.33;;;6.15;;
51495;SDS011;37572;52.094;4.870;2023-07-30T05:09:34;18.10;;;4.83;;
51495;SDS011;37572;52.094;4.870;2023-07-30T05:12:00;18.07;;;5.23;;
51495;SDS011;37572;52.094;4.870;2023-07-30T05:14:25;17.58;;;5.72;;
51495;SDS011;37572;52.094;4.870;2023-07-30T05:16:50;20.13;;;5.57;;
51495;SDS011;37572;52.094;4.870;2023-07-30T05:19:16;17.27;;;5.07;;
51495;SDS011;37572;52.094;4.870;2023-07-30T05:21:42;23.42;;;5.72;;
51495;SDS011;37572;52.094;4.870;2023-07-30T05:24:07;22.95;;;6.05;;
51495;SDS011;37572;52.094;4.870;2023-07-30T05:26:32;24.55;;;6.50;;
51495;SDS011;37572;52.094;4.870;2023-07-30T05:28:58;14.68;;;5.03;;
51495;SDS011;37572;52.094;4.870;2023-07-30T05:31:23;22.85;;;6.38;;
51495;SDS011;37572;52.094;4.870;2023-07-30T05:33:48;22.00;;;6.03;;
51495;SDS011;37572;52.094;4.870;2023-07-30T05:36:13;17.37;;;5.43;;
51495;SDS011;37572;52.094;4.870;2023-07-30T05:38:39;17.63;;;5.57;;
51495;SDS011;37572;52.094;4.870;2023-07-30T05:41:04;19.55;;;5.57;;
51495;SDS011;37572;52.094;4.870;2023-07-30T05:43:29;19.37;;;6.47;;
51495;SDS011;37572;52.094;4.870;2023-07-30T05:45:55;17.30;;;5.27;;
51495;SDS011;37572;52.094;4.870;2023-07-30T05:48:20;21.77;;;5.87;;
51495;SDS011;37572;52.094;4.870;2023-07-30T05:50:45;21.57;;;6.10;;
51495;SDS011;37572;52.094;4.870;2023-07-30T05:53:10;20.27;;;6.13;;
51495;SDS011;37572;52.094;4.870;2023-07-30T05:55:36;22.40;;;6.28;;
51495;SDS011;37572;52.094;4.870;2023-07-30T05:58:01;20.03;;;6.67;;
51495;SDS011;37572;52.094;4.870;2023-07-30T06:00:27;19.90;;;5.73;;
51495;SDS011;37572;52.094;4.870;2023-07-30T06:02:52;25.47;;;7.10;;
51495;SDS011;37572;52.094;4.870;2023-07-30T06:05:17;21.10;;;6.57;;
51495;SDS011;37572;52.094;4.870;2023-07-30T06:07:43;20.77;;;6.00;;
51495;SDS011;37572;52.094;4.870;2023-07-30T06:10:08;22.70;;;6.47;;
51495;SDS011;37572;52.094;4.870;2023-07-30T06:12:33;18.40;;;6.85;;
51495;SDS011;37572;52.094;4.870;2023-07-30T06:14:59;17.33;;;5.50;;
51495;SDS011;37572;52.094;4.870;2023-07-30T06:17:24;19.15;;;6.97;;
51495;SDS011;37572;52.094;4.870;2023-07-30T06:19:49;23.03;;;6.40;;
51495;SDS011;37572;52.094;4.870;2023-07-30T06:22:15;15.57;;;5.90;;
51495;SDS011;37572;52.094;4.870;2023-07-30T06:24:40;18.58;;;5.60;;
51495;SDS011;37572;52.094;4.870;2023-07-30T06:27:06;23.05;;;5.65;;
51495;SDS011;37572;52.094;4.870;2023-07-30T06:29:31;21.58;;;6.53;;
51495;SDS011;37572;52.094;4.870;2023-07-30T06:31:56;14.50;;;4.93;;
51495;SDS011;37572;52.094;4.870;2023-07-30T06:34:22;17.90;;;5.28;;
51495;SDS011;37572;52.094;4.870;2023-07-30T06:36:47;15.85;;;5.40;;
51495;SDS011;37572;52.094;4.870;2023-07-30T06:39:13;18.63;;;5.67;;
51495;SDS011;37572;52.094;4.870;2023-07-30T06:41:38;17.33;;;5.27;;
51495;SDS011;37572;52.094;4.870;2023-07-30T06:44:03;14.02;;;4.88;;
51495;SDS011;37572;52.094;4.870;2023-07-30T06:46:29;12.63;;;4.83;;
51495;SDS011;37572;52.094;4.870;2023-07-30T06:48:54;21.92;;;4.82;;
51495;SDS011;37572;52.094;4.870;2023-07-30T06:51:19;16.80;;;5.00;;
51495;SDS011;37572;52.094;4.870;2023-07-30T06:53:45;22.15;;;5.03;;
51495;SDS011;37572;52.094;4.870;2023-07-30T06:56:10;12.77;;;3.72;;
51495;SDS011;37572;52.094;4.870;2023-07-30T06:58:36;20.08;;;3.78;;
51495;SDS011;37572;52.094;4.870;2023-07-30T07:01:01;16.47;;;3.70;;
51495;SDS011;37572;52.094;4.870;2023-07-30T07:03:26;16.83;;;3.67;;
51495;SDS011;37572;52.094;4.870;2023-07-30T07:05:52;16.67;;;4.23;;
51495;SDS011;37572;52.094;4.870;2023-07-30T07:08:21;19.35;;;3.42;;
51495;SDS011;37572;52.094;4.870;2023-07-30T07:10:47;21.50;;;5.20;;
51495;SDS011;37572;52.094;4.870;2023-07-30T07:13:12;15.43;;;3.70;;
51495;SDS011;37572;52.094;4.870;2023-07-30T07:15:40;19.40;;;3.78;;
51495;SDS011;37572;52.094;4.870;2023-07-30T07:18:06;17.27;;;3.70;;
51495;SDS011;37572;52.094;4.870;2023-07-30T07:20:31;15.65;;;3.53;;
51495;SDS011;37572;52.094;4.870;2023-07-30T07:22:57;12.23;;;3.17;;
51495;SDS011;37572;52.094;4.870;2023-07-30T07:25:22;17.50;;;4.77;;
51495;SDS011;37572;52.094;4.870;2023-07-30T07:27:47;14.13;;;3.33;;
51495;SDS011;37572;52.094;4.870;2023-07-30T07:30:13;13.60;;;3.55;;
51495;SDS011;37572;52.094;4.870;2023-07-30T07:32:38;13.60;;;3.17;;
51495;SDS011;37572;52.094;4.870;2023-07-30T07:35:04;17.63;;;4.50;;
51495;SDS011;37572;52.094;4.870;2023-07-30T07:37:31;14.20;;;3.22;;
51495;SDS011;37572;52.094;4.870;2023-07-30T07:39:57;15.82;;;3.67;;
51495;SDS011;37572;52.094;4.870;2023-07-30T07:42:22;13.63;;;3.27;;
51495;SDS011;37572;52.094;4.870;2023-07-30T07:44:47;10.47;;;3.10;;
51495;SDS011;37572;52.094;4.870;2023-07-30T07:47:12;13.88;;;4.15;;
51495;SDS011;37572;52.094;4.870;2023-07-30T07:49:38;16.48;;;4.18;;
51495;SDS011;37572;52.094;4.870;2023-07-30T07:52:03;13.02;;;3.85;;
51495;SDS011;37572;52.094;4.870;2023-07-30T07:54:29;13.55;;;3.60;;
51495;SDS011;37572;52.094;4.870;2023-07-30T07:56:54;17.97;;;4.07;;
51495;SDS011;37572;52.094;4.870;2023-07-30T07:59:19;11.93;;;4.13;;
51495;SDS011;37572;52.094;4.870;2023-07-30T08:01:45;16.30;;;4.22;;
51495;SDS011;37572;52.094;4.870;2023-07-30T08:04:10;14.57;;;4.23;;
51495;SDS011;37572;52.094;4.870;2023-07-30T08:06:35;15.73;;;4.60;;
51495;SDS011;37572;52.094;4.870;2023-07-30T08:09:01;13.73;;;4.20;;
51495;SDS011;37572;52.094;4.870;2023-07-30T08:11:27;13.10;;;4.50;;
51495;SDS011;37572;52.094;4.870;2023-07-30T08:13:52;13.13;;;4.03;;
51495;SDS011;37572;52.094;4.870;2023-07-30T08:16:17;15.32;;;4.40;;
51495;SDS011;37572;52.094;4.870;2023-07-30T08:18:42;13.57;;;4.18;;
51495;SDS011;37572;52.094;4.870;2023-07-30T08:21:08;11.65;;;3.50;;
51495;SDS011;37572;52.094;4.870;2023-07-30T08:23:33;9.52;;;2.55;;
51495;SDS011;37572;52.094;4.870;2023-07-30T08:25:59;9.77;;;2.50;;
51495;SDS011;37572;52.094;4.870;2023-07-30T08:28:24;10.27;;;2.72;;
51495;SDS011;37572;52.094;4.870;2023-07-30T08:30:49;9.80;;;2.30;;
51495;SDS011;37572;52.094;4.870;2023-07-30T08:33:14;7.80;;;1.80;;
51495;SDS011;37572;52.094;4.870;2023-07-30T08:35:40;9.52;;;1.95;;
51495;SDS011;37572;52.094;4.870;2023-07-30T08:38:05;5.45;;;1.40;;
51495;SDS011;37572;52.094;4.870;2023-07-30T08:40:31;9.10;;;2.13;;
51495;SDS011;37572;52.094;4.870;2023-07-30T08:42:56;9.95;;;1.98;;
51495;SDS011;37572;52.094;4.870;2023-07-30T08:45:22;6.10;;;2.17;;
51495;SDS011;37572;52.094;4.870;2023-07-30T08:47:48;6.70;;;1.50;;
51495;SDS011;37572;52.094;4.870;2023-07-30T08:50:13;8.27;;;1.73;;
51495;SDS011;37572;52.094;4.870;2023-07-30T08:52:39;6.20;;;1.52;;
51495;SDS011;37572;52.094;4.870;2023-07-30T08:55:05;8.65;;;1.52;;
51495;SDS011;37572;52.094;4.870;2023-07-30T08:57:31;8.05;;;2.20;;
51495;SDS011;37572;52.094;4.870;2023-07-30T09:00:00;5.30;;;2.03;;
51495;SDS011;37572;52.094;4.870;2023-07-30T09:05:01;6.03;;;1.87;;
51495;SDS011;37572;52.094;4.870;2023-07-30T09:07:27;8.75;;;1.58;;
51495;SDS011;37572;52.094;4.870;2023-07-30T09:09:53;6.20;;;2.57;;
51495;SDS011;37572;52.094;4.870;2023-07-30T09:12:18;5.68;;;1.80;;
51495;SDS011;37572;52.094;4.870;2023-07-30T09:14:44;8.63;;;1.80;;
51495;SDS011;37572;52.094;4.870;2023-07-30T09:17:16;8.68;;;1.60;;
51495;SDS011;37572;52.094;4.870;2023-07-30T09:19:44;8.30;;;1.77;;
51495;SDS011;37572;52.094;4.870;2023-07-30T09:22:12;8.75;;;1.80;;
51495;SDS011;37572;52.094;4.870;2023-07-30T09:24:41;9.55;;;1.63;;
51495;SDS011;37572;52.094;4.870;2023-07-30T09:27:08;6.95;;;1.80;;
51495;SDS011;37572;52.094;4.870;2023-07-30T09:29:33;7.00;;;1.50;;
51495;SDS011;37572;52.094;4.870;2023-07-30T09:31:58;7.17;;;1.57;;
51495;SDS011;37572;52.094;4.870;2023-07-30T09:34:24;6.60;;;1.43;;
51495;SDS011;37572;52.094;4.870;2023-07-30T09:36:50;10.30;;;2.22;;
51495;SDS011;37572;52.094;4.870;2023-07-30T09:39:20;6.55;;;1.80;;
51495;SDS011;37572;52.094;4.870;2023-07-30T09:41:47;6.78;;;1.80;;
51495;SDS011;37572;52.094;4.870;2023-07-30T09:44:15;7.28;;;2.33;;
51495;SDS011;37572;52.094;4.870;2023-07-30T09:46:45;7.40;;;1.30;;
51495;SDS011;37572;52.094;4.870;2023-07-30T09:49:12;7.07;;;1.52;;
51495;SDS011;37572;52.094;4.870;2023-07-30T09:51:38;8.10;;;1.70;;
51495;SDS011;37572;52.094;4.870;2023-07-30T09:54:07;7.82;;;1.45;;
51495;SDS011;37572;52.094;4.870;2023-07-30T09:56:33;7.22;;;1.52;;
51495;SDS011;37572;52.094;4.870;2023-07-30T09:59:03;7.03;;;1.52;;
51495;SDS011;37572;52.094;4.870;2023-07-30T10:01:32;5.07;;;1.58;;
51495;SDS011;37572;52.094;4.870;2023-07-30T10:04:09;9.70;;;2.05;;
51495;SDS011;37572;52.094;4.870;2023-07-30T10:06:37;8.75;;;1.73;;
51495;SDS011;37572;52.094;4.870;2023-07-30T10:09:06;5.60;;;1.30;;
51495;SDS011;37572;52.094;4.870;2023-07-30T10:11:33;7.03;;;1.45;;
51495;SDS011;37572;52.094;4.870;2023-07-30T10:14:01;7.20;;;1.48;;
51495;SDS011;37572;52.094;4.870;2023-07-30T10:16:28;5.60;;;1.23;;
51495;SDS011;37572;52.094;4.870;2023-07-30T10:18:57;4.55;;;1.42;;
51495;SDS011;37572;52.094;4.870;2023-07-30T10:21:24;6.50;;;1.23;;
51495;SDS011;37572;52.094;4.870;2023-07-30T10:24:03;6.07;;;1.27;;
51495;SDS011;37572;52.094;4.870;2023-07-30T10:26:31;6.80;;;1.15;;
51495;SDS011;37572;52.094;4.870;2023-07-30T10:29:17;8.68;;;2.05;;
51495;SDS011;37572;52.094;4.870;2023-07-30T10:31:54;6.45;;;1.70;;
51495;SDS011;37572;52.094;4.870;2023-07-30T10:34:21;6.47;;;1.55;;
51495;SDS011;37572;52.094;4.870;2023-07-30T10:36:50;6.85;;;1.45;;
51495;SDS011;37572;52.094;4.870;2023-07-30T10:39:17;6.75;;;1.45;;
51495;SDS011;37572;52.094;4.870;2023-07-30T10:41:52;4.93;;;1.25;;
51495;SDS011;37572;52.094;4.870;2023-07-30T10:46:46;5.15;;;1.13;;
51495;SDS011;37572;52.094;4.870;2023-07-30T10:49:12;5.23;;;1.53;;
51495;SDS011;37572;52.094;4.870;2023-07-30T10:51:37;7.63;;;1.35;;
51495;SDS011;37572;52.094;4.870;2023-07-30T10:54:05;6.85;;;2.00;;
51495;SDS011;37572;52.094;4.870;2023-07-30T10:56:32;7.72;;;1.55;;
51495;SDS011;37572;52.094;4.870;2023-07-30T10:59:00;5.53;;;1.60;;
51495;SDS011;37572;52.094;4.870;2023-07-30T11:01:25;5.45;;;1.50;;
51495;SDS011;37572;52.094;4.870;2023-07-30T11:03:51;6.05;;;1.58;;
51495;SDS011;37572;52.094;4.870;2023-07-30T11:06:24;6.13;;;1.05;;
51495;SDS011;37572;52.094;4.870;2023-07-30T11:08:50;7.75;;;1.60;;
51495;SDS011;37572;52.094;4.870;2023-07-30T11:11:15;8.38;;;2.03;;
51495;SDS011;37572;52.094;4.870;2023-07-30T11:13:41;8.75;;;1.85;;
51495;SDS011;37572;52.094;4.870;2023-07-30T11:16:08;6.35;;;1.42;;
51495;SDS011;37572;52.094;4.870;2023-07-30T11:18:35;5.82;;;1.50;;
51495;SDS011;37572;52.094;4.870;2023-07-30T11:21:04;7.00;;;1.67;;
51495;SDS011;37572;52.094;4.870;2023-07-30T11:23:38;4.72;;;1.20;;
51495;SDS011;37572;52.094;4.870;2023-07-30T11:26:07;4.78;;;0.95;;
51495;SDS011;37572;52.094;4.870;2023-07-30T11:28:37;5.70;;;1.13;;
51495;SDS011;37572;52.094;4.870;2023-07-30T11:31:07;5.65;;;1.75;;
51495;SDS011;37572;52.094;4.870;2023-07-30T11:33:38;5.93;;;1.27;;
51495;SDS011;37572;52.094;4.870;2023-07-30T11:38:35;6.03;;;1.67;;
51495;SDS011;37572;52.094;4.870;2023-07-30T11:41:03;4.90;;;1.10;;
51495;SDS011;37572;52.094;4.870;2023-07-30T11:43:30;5.57;;;1.33;;
51495;SDS011;37572;52.094;4.870;2023-07-30T11:46:15;5.43;;;1.38;;
51495;SDS011;37572;52.094;4.870;2023-07-30T11:48:43;7.65;;;1.58;;
51495;SDS011;37572;52.094;4.870;2023-07-30T11:53:49;6.25;;;1.50;;
51495;SDS011;37572;52.094;4.870;2023-07-30T11:56:25;4.90;;;1.30;;
51495;SDS011;37572;52.094;4.870;2023-07-30T11:58:54;5.70;;;1.10;;
51495;SDS011;37572;52.094;4.870;2023-07-30T12:01:22;4.30;;;1.20;;
51495;SDS011;37572;52.094;4.870;2023-07-30T12:03:48;4.47;;;0.90;;
51495;SDS011;37572;52.094;4.870;2023-07-30T12:06:14;6.20;;;1.23;;
51495;SDS011;37572;52.094;4.870;2023-07-30T12:08:39;5.60;;;1.27;;
51495;SDS011;37572;52.094;4.870;2023-07-30T12:11:05;7.40;;;1.42;;
51495;SDS011;37572;52.094;4.870;2023-07-30T12:13:32;6.13;;;1.13;;
51495;SDS011;37572;52.094;4.870;2023-07-30T12:15:58;6.13;;;1.25;;
51495;SDS011;37572;52.094;4.870;2023-07-30T12:18:24;5.20;;;0.98;;
51495;SDS011;37572;52.094;4.870;2023-07-30T12:20:51;3.60;;;0.85;;
51495;SDS011;37572;52.094;4.870;2023-07-30T12:23:17;5.78;;;0.98;;
51495;SDS011;37572;52.094;4.870;2023-07-30T12:25:43;5.82;;;1.00;;
51495;SDS011;37572;52.094;4.870;2023-07-30T12:28:09;5.18;;;0.98;;
51495;SDS011;37572;52.094;4.870;2023-07-30T12:30:35;5.18;;;0.95;;
51495;SDS011;37572;52.094;4.870;2023-07-30T12:33:01;4.28;;;0.88;;
51495;SDS011;37572;52.094;4.870;2023-07-30T12:35:30;5.80;;;0.75;;
51495;SDS011;37572;52.094;4.870;2023-07-30T12:37:57;4.82;;;1.02;;
51495;SDS011;37572;52.094;4.870;2023-07-30T12:40:22;3.63;;;0.95;;
51495;SDS011;37572;52.094;4.870;2023-07-30T12:42:48;5.80;;;0.80;;
51495;SDS011;37572;52.094;4.870;2023-07-30T12:45:13;4.93;;;1.20;;
51495;SDS011;37572;52.094;4.870;2023-07-30T12:47:39;4.47;;;0.80;;
51495;SDS011;37572;52.094;4.870;2023-07-30T12:50:05;4.05;;;0.75;;
51495;SDS011;37572;52.094;4.870;2023-07-30T12:52:32;5.00;;;0.95;;
51495;SDS011;37572;52.094;4.870;2023-07-30T12:54:58;3.08;;;0.73;;
51495;SDS011;37572;52.094;4.870;2023-07-30T12:57:23;3.47;;;0.77;;
51495;SDS011;37572;52.094;4.870;2023-07-30T12:59:48;4.90;;;0.93;;
51495;SDS011;37572;52.094;4.870;2023-07-30T13:02:14;5.18;;;0.88;;
51495;SDS011;37572;52.094;4.870;2023-07-30T13:04:39;4.13;;;0.97;;
51495;SDS011;37572;52.094;4.870;2023-07-30T13:07:04;3.83;;;0.80;;
51495;SDS011;37572;52.094;4.870;2023-07-30T13:09:30;3.78;;;1.10;;
51495;SDS011;37572;52.094;4.870;2023-07-30T13:11:55;6.30;;;1.27;;
51495;SDS011;37572;52.094;4.870;2023-07-30T13:14:21;4.33;;;0.73;;
51495;SDS011;37572;52.094;4.870;2023-07-30T13:16:46;5.20;;;0.98;;
51495;SDS011;37572;52.094;4.870;2023-07-30T13:19:11;4.00;;;1.03;;
51495;SDS011;37572;52.094;4.870;2023-07-30T13:21:37;4.43;;;0.90;;
51495;SDS011;37572;52.094;4.870;2023-07-30T13:24:02;4.80;;;1.00;;
51495;SDS011;37572;52.094;4.870;2023-07-30T13:26:28;3.85;;;0.93;;
51495;SDS011;37572;52.094;4.870;2023-07-30T13:28:53;5.73;;;1.00;;
51495;SDS011;37572;52.094;4.870;2023-07-30T13:31:18;4.07;;;0.93;;
51495;SDS011;37572;52.094;4.870;2023-07-30T13:33:44;4.85;;;1.20;;
51495;SDS011;37572;52.094;4.870;2023-07-30T13:36:12;5.78;;;1.13;;
51495;SDS011;37572;52.094;4.870;2023-07-30T13:38:37;5.53;;;1.23;;
51495;SDS011;37572;52.094;4.870;2023-07-30T13:41:03;4.25;;;1.48;;
51495;SDS011;37572;52.094;4.870;2023-07-30T13:43:29;4.70;;;1.42;;
51495;SDS011;37572;52.094;4.870;2023-07-30T13:45:54;5.87;;;1.00;;
51495;SDS011;37572;52.094;4.870;2023-07-30T13:48:19;6.45;;;1.25;;
51495;SDS011;37572;52.094;4.870;2023-07-30T13:50:45;5.80;;;1.40;;
51495;SDS011;37572;52.094;4.870;2023-07-30T13:53:10;6.37;;;1.27;;
51495;SDS011;37572;52.094;4.870;2023-07-30T13:55:35;6.97;;;1.15;;
51495;SDS011;37572;52.094;4.870;2023-07-30T13:58:01;5.53;;;1.13;;
51495;SDS011;37572;52.094;4.870;2023-07-30T14:00:28;7.13;;;1.55;;
51495;SDS011;37572;52.094;4.870;2023-07-30T14:02:53;5.47;;;1.55;;
51495;SDS011;37572;52.094;4.870;2023-07-30T14:05:19;7.18;;;1.30;;
51495;SDS011;37572;52.094;4.870;2023-07-30T14:07:44;6.20;;;1.87;;
51495;SDS011;37572;52.094;4.870;2023-07-30T14:10:10;5.65;;;1.48;;
51495;SDS011;37572;52.094;4.870;2023-07-30T14:12:36;6.18;;;1.55;;
51495;SDS011;37572;52.094;4.870;2023-07-30T14:15:01;8.10;;;1.27;;
51495;SDS011;37572;52.094;4.870;2023-07-30T14:17:27;8.02;;;1.65;;
51495;SDS011;37572;52.094;4.870;2023-07-30T14:19:52;6.90;;;1.60;;
51495;SDS011;37572;52.094;4.870;2023-07-30T14:22:20;5.85;;;1.80;;
51495;SDS011;37572;52.094;4.870;2023-07-30T14:24:45;7.40;;;2.10;;
51495;SDS011;37572;52.094;4.870;2023-07-30T14:27:11;8.30;;;1.50;;
51495;SDS011;37572;52.094;4.870;2023-07-30T14:29:36;10.80;;;2.22;;
51495;SDS011;37572;52.094;4.870;2023-07-30T14:32:01;7.13;;;1.65;;
51495;SDS011;37572;52.094;4.870;2023-07-30T14:34:27;6.60;;;1.50;;
51495;SDS011;37572;52.094;4.870;2023-07-30T14:36:52;5.85;;;1.45;;
51495;SDS011;37572;52.094;4.870;2023-07-30T14:39:17;6.93;;;1.40;;
51495;SDS011;37572;52.094;4.870;2023-07-30T14:41:43;7.30;;;1.63;;
51495;SDS011;37572;52.094;4.870;2023-07-30T14:44:08;5.43;;;2.30;;